createdAt,value
2019-02-20T00:02:06.465Z,78.00
2019-02-20T00:04:35.250Z,77.50
2019-02-20T00:07:04.061Z,77.90
2019-02-20T00:09:32.941Z,78.00
2019-02-20T00:12:01.736Z,77.90
2019-02-20T00:14:30.509Z,77.90
2019-02-20T00:16:59.329Z,77.90
2019-02-20T00:19:28.081Z,78.50
2019-02-20T00:21:56.803Z,77.90
2019-02-20T00:24:25.601Z,77.80
2019-02-20T00:26:54.378Z,78.00
2019-02-20T00:29:23.097Z,77.70
2019-02-20T00:31:51.820Z,77.80
2019-02-20T00:34:20.557Z,77.90
2019-02-20T00:36:49.337Z,77.80
2019-02-20T00:39:18.060Z,77.80
2019-02-20T00:41:46.913Z,77.90
2019-02-20T00:44:22.441Z,77.60
2019-02-20T00:47:02.718Z,77.80
2019-02-20T00:49:35.905Z,77.80
2019-02-20T00:52:29.683Z,77.80
2019-02-20T00:54:58.404Z,77.90
2019-02-20T00:57:27.109Z,77.80
2019-02-20T00:59:55.798Z,77.80
2019-02-20T01:02:24.522Z,77.80
2019-02-20T01:04:53.318Z,77.80
2019-02-20T01:07:22.045Z,77.70
2019-02-20T01:09:50.857Z,77.80
2019-02-20T01:12:19.569Z,77.90
2019-02-20T01:14:48.279Z,77.90
2019-02-20T01:17:17.166Z,77.70
2019-02-20T01:19:45.879Z,77.90
2019-02-20T01:22:14.589Z,77.80
2019-02-20T01:24:43.381Z,77.90
2019-02-20T01:27:12.201Z,77.90
2019-02-20T01:29:40.998Z,77.90
2019-02-20T01:32:09.857Z,77.80
2019-02-20T01:34:38.561Z,77.90
2019-02-20T01:37:07.317Z,77.80
2019-02-20T01:39:36.041Z,77.80
2019-02-20T01:42:04.826Z,77.80
2019-02-20T01:44:33.533Z,77.80
2019-02-20T01:47:02.277Z,77.90
2019-02-20T01:49:31.072Z,77.80
2019-02-20T01:51:59.836Z,77.70
2019-02-20T01:54:28.635Z,77.80
2019-02-20T01:56:57.426Z,77.80
2019-02-20T01:59:26.149Z,77.80
2019-02-20T02:01:54.865Z,77.70
2019-02-20T02:04:23.597Z,77.90
2019-02-20T02:06:52.305Z,77.80
2019-02-20T02:09:21.066Z,77.70
2019-02-20T02:11:49.768Z,77.90
2019-02-20T02:14:18.500Z,77.80
2019-02-20T02:16:47.206Z,77.80
2019-02-20T02:19:15.917Z,77.70
2019-02-20T02:21:44.619Z,77.80
2019-02-20T02:24:17.897Z,77.70
2019-02-20T02:26:49.961Z,77.50
2019-02-20T02:29:18.778Z,76.30
2019-02-20T02:31:47.628Z,77.50
2019-02-20T02:34:16.413Z,77.30
2019-02-20T02:36:45.105Z,78.00
2019-02-20T02:39:13.825Z,77.70
2019-02-20T02:41:44.749Z,77.50
2019-02-20T02:44:13.022Z,77.80
2019-02-20T02:46:41.767Z,77.90
2019-02-20T02:49:10.481Z,77.90
2019-02-20T02:51:39.289Z,77.50
2019-02-20T02:54:07.990Z,78.00
2019-02-20T02:56:36.681Z,78.10
2019-02-20T02:59:05.385Z,78.20
2019-02-20T03:01:34.097Z,78.20
2019-02-20T03:04:02.811Z,78.20
2019-02-20T03:06:31.546Z,78.30
2019-02-20T03:09:00.275Z,78.10
2019-02-20T03:11:28.979Z,78.30
2019-02-20T03:13:57.695Z,78.20
2019-02-20T03:16:26.430Z,78.40
2019-02-20T03:18:55.197Z,78.40
2019-02-20T03:21:23.898Z,78.40
2019-02-20T03:23:52.629Z,78.40
2019-02-20T03:26:21.355Z,78.40
2019-02-20T03:28:50.133Z,79.20
2019-02-20T03:31:18.866Z,78.40
2019-02-20T03:33:47.674Z,78.40
2019-02-20T03:36:16.397Z,78.40
2019-02-20T03:38:45.109Z,78.50
2019-02-20T03:41:13.869Z,78.60
2019-02-20T03:43:42.621Z,78.80
2019-02-20T03:46:11.342Z,78.70
2019-02-20T03:48:40.138Z,78.80
2019-02-20T03:51:08.845Z,78.80
2019-02-20T03:53:37.564Z,78.90
2019-02-20T03:56:06.265Z,79.00
2019-02-20T03:58:35.185Z,79.10
2019-02-20T04:01:03.930Z,78.90
2019-02-20T04:03:32.650Z,79.10
2019-02-20T04:06:01.447Z,79.20
2019-02-20T04:08:30.149Z,79.20
2019-02-20T04:10:58.862Z,79.10
2019-02-20T04:13:27.557Z,79.10
2019-02-20T04:15:56.305Z,79.10
2019-02-20T04:18:25.124Z,79.20
2019-02-20T04:20:53.817Z,79.30
2019-02-20T04:23:22.617Z,79.10
2019-02-20T04:25:51.333Z,79.20
2019-02-20T04:28:20.034Z,79.20
2019-02-20T04:30:48.749Z,79.40
2019-02-20T04:33:17.458Z,79.30
2019-02-20T04:35:46.166Z,79.40
2019-02-20T04:38:14.882Z,79.20
2019-02-20T04:40:43.592Z,79.30
2019-02-20T04:43:12.463Z,79.30
2019-02-20T04:45:41.187Z,79.40
2019-02-20T04:48:09.897Z,79.30
2019-02-20T04:50:38.668Z,79.30
2019-02-20T04:53:07.453Z,79.30
2019-02-20T04:55:36.157Z,79.30
2019-02-20T04:58:13.872Z,79.30
2019-02-20T05:00:42.585Z,80.10
2019-02-20T05:03:11.322Z,79.60
2019-02-20T05:05:40.062Z,79.50
2019-02-20T05:08:08.890Z,79.70
2019-02-20T05:10:37.602Z,79.70
2019-02-20T05:13:06.412Z,79.80
2019-02-20T05:15:35.123Z,79.90
2019-02-20T05:18:03.841Z,79.90
2019-02-20T05:20:32.570Z,79.90
2019-02-20T05:23:01.283Z,79.90
2019-02-20T05:25:30.011Z,79.90
2019-02-20T05:27:58.734Z,79.90
2019-02-20T05:30:27.442Z,79.90
2019-02-20T05:32:56.162Z,80.00
2019-02-20T05:35:24.937Z,80.00
2019-02-20T05:37:53.701Z,80.00
2019-02-20T05:40:22.427Z,79.90
2019-02-20T05:42:51.253Z,79.80
2019-02-20T05:45:19.978Z,79.70
2019-02-20T05:47:48.781Z,79.50
2019-02-20T05:50:17.605Z,79.70
2019-02-20T05:52:46.453Z,79.40
2019-02-20T05:55:15.274Z,79.20
2019-02-20T05:57:43.981Z,79.10
2019-02-20T06:00:12.886Z,79.00
2019-02-20T06:02:41.595Z,79.00
2019-02-20T06:05:10.456Z,78.80
2019-02-20T06:07:39.169Z,78.70
2019-02-20T06:10:08.505Z,78.70
2019-02-20T06:12:37.213Z,78.70
2019-02-20T06:15:06.309Z,78.60
2019-02-20T06:17:35.036Z,78.70
2019-02-20T06:20:04.257Z,78.60
2019-02-20T06:22:32.954Z,78.50
2019-02-20T06:25:01.700Z,78.40
2019-02-20T06:27:30.433Z,78.40
2019-02-20T06:29:59.248Z,78.50
2019-02-20T06:32:28.189Z,78.50
2019-02-20T06:34:56.906Z,78.40
2019-02-20T06:37:25.635Z,78.60
2019-02-20T06:39:54.353Z,78.40
2019-02-20T06:42:23.073Z,78.50
2019-02-20T06:44:51.792Z,78.40
2019-02-20T06:47:20.482Z,78.50
2019-02-20T06:49:49.231Z,78.50
2019-02-20T06:52:17.945Z,78.40
2019-02-20T06:54:53.498Z,78.50
2019-02-20T06:57:17.160Z,78.40
2019-02-20T06:59:45.909Z,78.40
2019-02-20T07:02:14.793Z,78.40
2019-02-20T07:05:20.781Z,78.40
2019-02-20T07:08:28.046Z,78.50
2019-02-20T07:11:08.970Z,78.40
2019-02-20T07:13:56.306Z,78.20
2019-02-20T07:16:50.605Z,78.50
2019-02-20T07:19:31.401Z,78.40
2019-02-20T07:22:34.868Z,78.50
2019-02-20T07:25:27.161Z,78.50
2019-02-20T07:28:48.556Z,78.50
2019-02-20T07:31:18.409Z,78.40
2019-02-20T07:33:47.142Z,78.50
2019-02-20T07:36:15.867Z,78.60
2019-02-20T07:38:44.622Z,78.50
2019-02-20T07:41:13.392Z,78.60
2019-02-20T07:43:42.113Z,78.70
2019-02-20T07:46:10.858Z,78.60
2019-02-20T07:48:39.637Z,78.70
2019-02-20T07:51:08.409Z,78.80
2019-02-20T07:53:37.229Z,78.60
2019-02-20T07:56:05.981Z,78.50
2019-02-20T07:58:34.696Z,78.40
2019-02-20T08:01:03.472Z,78.40
2019-02-20T08:03:32.248Z,78.40
2019-02-20T08:06:01.001Z,78.50
2019-02-20T08:08:29.890Z,78.30
2019-02-20T08:10:58.590Z,78.40
2019-02-20T08:13:27.319Z,78.30
2019-02-20T08:15:56.045Z,78.20
2019-02-20T08:18:24.737Z,78.30
2019-02-20T08:20:55.078Z,78.30
2019-02-20T08:23:23.789Z,78.20
2019-02-20T08:25:52.481Z,77.90
2019-02-20T08:28:21.262Z,78.90
2019-02-20T08:30:50.071Z,78.00
2019-02-20T08:33:18.949Z,78.00
2019-02-20T08:35:47.682Z,78.00
2019-02-20T08:38:16.402Z,78.00
2019-02-20T08:40:45.400Z,77.90
2019-02-20T08:43:16.557Z,78.20
2019-02-20T08:45:45.276Z,78.00
2019-02-20T08:48:13.977Z,78.10
2019-02-20T08:50:42.736Z,77.70
2019-02-20T08:53:11.458Z,78.00
2019-02-20T08:55:40.161Z,77.80
2019-02-20T08:58:08.915Z,77.10
2019-02-20T09:00:37.618Z,76.90
2019-02-20T09:03:06.394Z,77.00
2019-02-20T09:05:35.109Z,76.90
2019-02-20T09:08:03.876Z,76.80
2019-02-20T09:10:32.625Z,76.90
2019-02-20T09:13:01.373Z,76.90
2019-02-20T09:15:30.137Z,76.60
2019-02-20T09:17:58.841Z,76.30
2019-02-20T09:20:27.641Z,76.20
2019-02-20T09:22:56.369Z,76.80
2019-02-20T09:25:25.173Z,76.00
2019-02-20T09:27:53.914Z,76.10
2019-02-20T09:30:28.507Z,75.90
2019-02-20T09:32:53.165Z,75.80
2019-02-20T09:35:21.886Z,75.70
2019-02-20T09:37:50.610Z,75.60
2019-02-20T09:40:19.387Z,75.70
2019-02-20T09:42:48.197Z,76.30
2019-02-20T09:45:16.982Z,75.70
2019-02-20T09:47:45.697Z,75.80
2019-02-20T09:50:14.573Z,75.80
2019-02-20T09:52:51.912Z,75.90
2019-02-20T09:55:14.017Z,75.90
2019-02-20T09:57:42.798Z,75.60
2019-02-20T10:00:13.738Z,76.00
2019-02-20T10:02:42.525Z,75.70
2019-02-20T10:05:11.505Z,75.30
2019-02-20T10:07:40.322Z,75.20
2019-02-20T10:10:09.231Z,75.10
2019-02-20T10:12:37.950Z,74.90
2019-02-20T10:15:07.401Z,74.50
2019-02-20T10:17:36.197Z,74.40
2019-02-20T10:20:05.606Z,74.20
2019-02-20T10:22:34.386Z,74.10
2019-02-20T10:25:03.165Z,74.20
2019-02-20T10:27:31.899Z,74.20
2019-02-20T10:30:00.612Z,73.90
2019-02-20T10:32:29.414Z,73.60
2019-02-20T10:34:58.273Z,73.60
2019-02-20T10:37:26.988Z,73.30
2019-02-20T10:39:55.709Z,73.00
2019-02-20T10:42:24.430Z,72.70
2019-02-20T10:44:53.258Z,72.30
2019-02-20T10:47:21.963Z,71.90
2019-02-20T10:49:50.719Z,71.70
2019-02-20T10:52:19.489Z,72.40
2019-02-20T10:54:48.261Z,71.70
2019-02-20T10:57:17.004Z,71.70
2019-02-20T10:59:47.360Z,71.40
2019-02-20T11:02:16.092Z,70.80
2019-02-20T11:04:44.945Z,70.60
2019-02-20T11:07:13.717Z,69.70
2019-02-20T11:09:42.417Z,70.10
2019-02-20T11:12:11.125Z,69.70
2019-02-20T11:14:39.833Z,69.80
2019-02-20T11:17:08.702Z,69.80
2019-02-20T11:19:37.442Z,70.30
2019-02-20T11:22:06.217Z,69.80
2019-02-20T11:24:35.055Z,69.10
2019-02-20T11:27:03.809Z,68.40
2019-02-20T11:29:32.513Z,68.40
2019-02-20T11:32:01.257Z,68.40
2019-02-20T11:34:30.055Z,67.90
2019-02-20T11:36:58.847Z,67.90
2019-02-20T11:39:27.569Z,68.30
2019-02-20T11:41:56.305Z,67.50
2019-02-20T11:44:25.022Z,67.00
2019-02-20T11:46:53.810Z,66.50
2019-02-20T11:49:22.546Z,66.10
2019-02-20T11:51:51.237Z,65.70
2019-02-20T11:54:19.950Z,65.80
2019-02-20T11:56:48.718Z,65.50
2019-02-20T11:59:17.414Z,64.50
2019-02-20T12:01:46.254Z,64.60
2019-02-20T12:04:15.042Z,64.20
2019-02-20T12:06:43.749Z,63.80
2019-02-20T12:09:12.541Z,63.50
2019-02-20T12:11:41.278Z,63.90
2019-02-20T12:14:10.146Z,63.80
2019-02-20T12:16:39.093Z,64.00
2019-02-20T12:19:07.859Z,64.10
2019-02-20T12:21:36.561Z,64.00
2019-02-20T12:24:05.344Z,64.10
2019-02-20T12:26:35.317Z,63.80
2019-02-20T12:29:04.414Z,63.80
2019-02-20T12:31:33.148Z,63.80
2019-02-20T12:34:02.051Z,64.00
2019-02-20T12:36:30.837Z,63.80
2019-02-20T12:38:59.596Z,63.30
2019-02-20T12:41:30.200Z,62.70
2019-02-20T12:43:58.754Z,62.90
2019-02-20T12:46:27.478Z,63.20
2019-02-20T12:48:56.232Z,63.40
2019-02-20T12:51:25.018Z,63.50
2019-02-20T12:53:55.082Z,62.50
2019-02-20T12:56:23.947Z,63.20
2019-02-20T12:58:52.671Z,62.70
2019-02-20T13:01:21.379Z,62.90
2019-02-20T13:03:50.145Z,62.20
2019-02-20T13:06:18.921Z,62.20
2019-02-20T13:08:47.692Z,62.20
2019-02-20T13:11:16.425Z,62.50
2019-02-20T13:13:45.125Z,62.40
2019-02-20T13:16:13.941Z,63.00
2019-02-20T13:18:42.685Z,62.60
2019-02-20T13:21:11.395Z,61.80
2019-02-20T13:23:40.128Z,62.10
2019-02-20T13:26:09.134Z,61.30
2019-02-20T13:28:37.927Z,60.80
2019-02-20T13:31:06.637Z,60.60
2019-02-20T13:33:35.365Z,60.80
2019-02-20T13:36:04.426Z,61.00
2019-02-20T13:38:33.143Z,60.60
2019-02-20T13:41:01.881Z,60.20
2019-02-20T13:43:30.862Z,59.70
2019-02-20T13:45:59.574Z,59.90
2019-02-20T13:48:28.347Z,59.50
2019-02-20T13:50:57.173Z,59.40
2019-02-20T13:53:26.067Z,59.60
2019-02-20T13:55:54.957Z,59.50
2019-02-20T13:58:23.693Z,59.80
2019-02-20T14:00:52.398Z,59.30
2019-02-20T14:03:21.138Z,59.40
2019-02-20T14:05:49.855Z,59.30
2019-02-20T14:08:18.638Z,59.30
2019-02-20T14:10:47.357Z,59.30
2019-02-20T14:13:16.070Z,59.20
2019-02-20T14:15:45.636Z,59.30
2019-02-20T14:18:14.525Z,58.90
2019-02-20T14:20:43.233Z,58.80
2019-02-20T14:23:11.977Z,58.70
2019-02-20T14:25:40.774Z,58.70
2019-02-20T14:28:09.469Z,58.60
2019-02-20T14:30:38.267Z,58.00
2019-02-20T14:33:06.982Z,57.50
2019-02-20T14:35:35.701Z,56.90
2019-02-20T14:38:04.513Z,57.00
2019-02-20T14:40:33.318Z,56.50
2019-02-20T14:43:02.009Z,56.30
2019-02-20T14:45:30.728Z,56.40
2019-02-20T14:47:59.853Z,56.50
2019-02-20T14:50:28.686Z,56.70
2019-02-20T14:52:57.434Z,57.00
2019-02-20T14:55:26.142Z,57.20
2019-02-20T14:57:54.864Z,57.20
2019-02-20T15:00:23.737Z,57.00
2019-02-20T15:02:52.461Z,57.00
2019-02-20T15:05:21.645Z,57.10
2019-02-20T15:07:50.421Z,56.70
2019-02-20T15:10:19.226Z,56.60
2019-02-20T15:12:48.024Z,56.30
2019-02-20T15:15:18.979Z,56.40
2019-02-20T15:17:47.999Z,56.40
2019-02-20T15:20:17.068Z,56.60
2019-02-20T15:22:45.858Z,56.90
2019-02-20T15:25:15.435Z,56.50
2019-02-20T15:27:44.166Z,56.50
2019-02-20T15:30:13.339Z,56.10
2019-02-20T15:32:42.245Z,56.00
2019-02-20T15:35:12.720Z,55.80
2019-02-20T15:37:41.478Z,55.50
2019-02-20T15:40:10.692Z,55.20
2019-02-20T15:42:39.501Z,55.00
2019-02-20T15:45:11.165Z,55.00
2019-02-20T15:47:40.166Z,54.60
2019-02-20T15:50:09.981Z,54.60
2019-02-20T15:52:39.783Z,54.80
2019-02-20T15:55:08.730Z,54.60
2019-02-20T15:57:38.394Z,54.70
2019-02-20T16:00:09.354Z,55.00
2019-02-20T16:02:38.119Z,55.20
2019-02-20T16:05:07.224Z,55.30
2019-02-20T16:07:36.219Z,55.30
2019-02-20T16:10:06.940Z,55.30
2019-02-20T16:12:35.726Z,55.60
2019-02-20T16:15:04.954Z,55.50
2019-02-20T16:17:33.673Z,55.60
2019-02-20T16:20:02.458Z,55.80
2019-02-20T16:22:31.651Z,55.80
2019-02-20T16:25:00.586Z,55.90
2019-02-20T16:27:29.352Z,56.00
2019-02-20T16:29:58.066Z,56.10
2019-02-20T16:32:26.789Z,56.10
2019-02-20T16:34:55.547Z,56.40
2019-02-20T16:37:24.285Z,56.20
2019-02-20T16:39:53.395Z,56.30
2019-02-20T16:42:22.104Z,56.40
2019-02-20T16:44:50.917Z,56.90
2019-02-20T16:47:19.646Z,56.70
2019-02-20T16:49:48.337Z,57.20
2019-02-20T16:52:17.041Z,57.10
2019-02-20T16:54:46.260Z,57.20
2019-02-20T16:57:15.049Z,57.10
2019-02-20T16:59:43.745Z,57.20
2019-02-20T17:02:13.127Z,57.20
2019-02-20T17:04:41.913Z,57.40
2019-02-20T17:07:10.750Z,57.60
2019-02-20T17:09:39.717Z,57.50
2019-02-20T17:12:09.509Z,57.70
2019-02-20T17:14:38.297Z,58.00
2019-02-20T17:17:07.117Z,58.10
2019-02-20T17:19:35.894Z,58.00
2019-02-20T17:22:04.606Z,58.40
2019-02-20T17:24:33.480Z,58.60
2019-02-20T17:27:02.685Z,58.60
2019-02-20T17:29:31.389Z,58.80
2019-02-20T17:32:00.208Z,58.70
2019-02-20T17:34:29.040Z,58.90
2019-02-20T17:36:57.906Z,59.10
2019-02-20T17:39:26.702Z,59.00
2019-02-20T17:41:55.505Z,59.20
2019-02-20T17:44:24.218Z,59.10
2019-02-20T17:46:52.953Z,59.30
2019-02-20T17:49:21.662Z,59.40
2019-02-20T17:51:50.529Z,59.50
2019-02-20T17:54:19.348Z,59.50
2019-02-20T17:56:48.057Z,59.60
2019-02-20T17:59:16.857Z,59.80
2019-02-20T18:01:46.149Z,59.60
2019-02-20T18:04:14.998Z,59.60
2019-02-20T18:06:43.701Z,59.40
2019-02-20T18:09:12.569Z,59.60
2019-02-20T18:11:41.302Z,59.70
2019-02-20T18:14:10.011Z,59.60
2019-02-20T18:16:38.799Z,59.80
2019-02-20T18:19:07.493Z,60.50
2019-02-20T18:21:36.223Z,60.00
2019-02-20T18:24:05.063Z,60.20
2019-02-20T18:26:33.878Z,60.30
2019-02-20T18:29:02.682Z,60.20
2019-02-20T18:31:31.589Z,60.20
2019-02-20T18:34:00.332Z,60.90
2019-02-20T18:36:30.682Z,60.40
2019-02-20T18:38:59.470Z,60.10
2019-02-20T18:41:28.169Z,60.30
2019-02-20T18:43:56.895Z,60.50
2019-02-20T18:46:25.646Z,60.70
2019-02-20T18:48:54.401Z,60.50
2019-02-20T18:51:23.130Z,60.60
2019-02-20T18:53:51.872Z,60.70
2019-02-20T18:56:21.891Z,60.80
2019-02-20T18:58:50.725Z,60.70
2019-02-20T19:01:19.470Z,60.80
2019-02-20T19:03:48.192Z,60.50
2019-02-20T19:06:17.010Z,60.80
2019-02-20T19:09:07.874Z,61.10
2019-02-20T19:12:08.955Z,60.60
2019-02-20T19:15:17.166Z,60.90
2019-02-20T19:18:05.428Z,60.70
2019-02-20T19:20:54.665Z,61.00
2019-02-20T19:24:03.566Z,61.30
2019-02-20T19:26:54.979Z,61.10
2019-02-20T19:30:20.054Z,61.40
2019-02-20T19:33:23.781Z,61.40
2019-02-20T19:36:30.030Z,61.60
2019-02-20T19:39:23.946Z,61.70
2019-02-20T19:42:26.052Z,62.70
2019-02-20T19:45:45.324Z,62.10
2019-02-20T19:49:01.867Z,62.20
2019-02-20T19:52:16.929Z,62.40
2019-02-20T19:55:02.083Z,62.50
2019-02-20T19:57:39.126Z,62.50
2019-02-20T20:00:36.489Z,63.30
2019-02-20T20:03:53.098Z,62.70
2019-02-20T20:07:11.192Z,63.10
2019-02-20T20:10:12.581Z,63.20
2019-02-20T20:13:19.505Z,63.10
2019-02-20T20:16:06.756Z,63.30
2019-02-20T20:19:13.632Z,63.20
2019-02-20T20:22:36.280Z,62.90
2019-02-20T20:25:40.237Z,63.20
2019-02-20T20:28:35.664Z,63.10
2019-02-20T20:31:42.077Z,63.00
2019-02-20T20:34:49.454Z,63.10
2019-02-20T20:37:40.652Z,62.90
2019-02-20T20:40:52.829Z,63.10
2019-02-20T20:43:55.557Z,63.60
2019-02-20T20:46:50.229Z,63.10
2019-02-20T20:49:49.225Z,63.00
2019-02-20T20:52:57.677Z,62.90
2019-02-20T20:56:01.365Z,62.90
2019-02-20T20:58:53.953Z,63.00
2019-02-20T21:01:50.048Z,63.00
2019-02-20T21:05:03.433Z,63.20
2019-02-20T21:07:56.767Z,63.10
2019-02-20T21:11:15.215Z,63.00
2019-02-20T21:14:22.173Z,63.10
2019-02-20T21:17:18.528Z,63.20
2019-02-20T21:20:15.365Z,63.00
2019-02-20T21:23:36.185Z,62.90
2019-02-20T21:26:55.745Z,63.00
2019-02-20T21:30:06.261Z,62.90
2019-02-20T21:33:10.225Z,62.90
2019-02-20T21:36:13.125Z,62.90
2019-02-20T21:39:31.810Z,62.90
2019-02-20T21:42:48.050Z,62.90
2019-02-20T21:45:38.729Z,63.20
2019-02-20T21:48:36.990Z,63.10
2019-02-20T21:51:44.683Z,63.00
2019-02-20T21:54:45.709Z,63.00
2019-02-20T21:57:58.165Z,63.00
2019-02-20T22:01:02.761Z,62.90
2019-02-20T22:04:13.825Z,63.10
2019-02-20T22:07:14.436Z,63.10
2019-02-20T22:10:24.386Z,63.20
2019-02-20T22:13:55.438Z,63.20
2019-02-20T22:16:45.654Z,63.30
2019-02-20T22:20:01.296Z,63.30
2019-02-20T22:23:04.342Z,63.40
2019-02-20T22:25:45.177Z,63.50
2019-02-20T22:29:10.578Z,63.60
2019-02-20T22:32:44.950Z,63.80
2019-02-20T22:35:50.284Z,64.10
2019-02-20T22:38:55.405Z,64.10
2019-02-20T22:41:35.893Z,64.20
2019-02-20T22:44:37.761Z,64.50
2019-02-20T22:47:39.430Z,64.60
2019-02-20T22:50:25.322Z,64.90
2019-02-20T22:53:22.404Z,65.00
2019-02-20T22:56:21.457Z,65.20
2019-02-20T22:59:10.889Z,65.30
2019-02-20T23:02:18.489Z,65.40
2019-02-20T23:05:21.838Z,65.60
2019-02-20T23:08:10.182Z,65.70
2019-02-20T23:11:23.915Z,66.90
2019-02-20T23:14:16.374Z,67.20
2019-02-20T23:16:45.155Z,67.30
2019-02-20T23:19:14.083Z,67.50
2019-02-20T23:21:44.279Z,67.80
2019-02-20T23:24:15.935Z,67.80
2019-02-20T23:26:44.641Z,68.10
2019-02-20T23:29:14.724Z,68.40
2019-02-20T23:31:43.505Z,68.50
2019-02-20T23:34:12.318Z,68.70
2019-02-20T23:36:41.147Z,68.90
2019-02-20T23:39:09.983Z,68.90
2019-02-20T23:41:38.699Z,69.00
2019-02-20T23:44:07.427Z,69.20
2019-02-20T23:46:36.138Z,69.40
2019-02-20T23:49:04.846Z,69.60
2019-02-20T23:51:33.578Z,69.50
2019-02-20T23:54:02.299Z,69.70
2019-02-20T23:56:31.102Z,70.10
2019-02-20T23:58:59.825Z,70.20
